createdAt,value
2023-05-22T02:26:10.601Z,63.40
2023-05-22T02:28:37.961Z,65.90
2023-05-22T02:31:04.792Z,66.10
2023-05-22T02:33:31.511Z,66.20
2023-05-22T02:35:58.310Z,66.20
2023-05-22T02:38:25.023Z,66.30
2023-05-22T02:40:51.830Z,66.20
2023-05-22T02:43:18.639Z,66.30
2023-05-22T02:45:45.554Z,66.30
2023-05-22T02:48:13.168Z,66.20
2023-05-22T02:50:40.373Z,66.30
2023-05-22T02:53:08.468Z,66.40
2023-05-22T02:55:35.276Z,66.50
2023-05-22T02:58:03.281Z,66.30
2023-05-22T03:00:29.977Z,66.30
2023-05-22T03:02:56.809Z,66.30
2023-05-22T03:05:23.617Z,66.40
2023-05-22T03:07:50.580Z,66.30
2023-05-22T03:10:17.667Z,66.40
2023-05-22T03:12:45.668Z,66.30
2023-05-22T03:15:12.478Z,66.30
2023-05-22T03:17:39.242Z,66.20
2023-05-22T03:20:08.999Z,66.20
2023-05-22T03:22:35.828Z,66.10
2023-05-22T03:25:02.612Z,66.00
2023-05-22T03:34:50.862Z,65.90
2023-05-22T03:37:17.700Z,66.00
2023-05-22T03:39:44.867Z,66.00
2023-05-22T03:42:13.393Z,66.00
2023-05-22T03:44:40.011Z,66.00
2023-05-22T03:47:06.762Z,65.70
2023-05-22T03:49:33.580Z,65.80
2023-05-22T03:52:00.831Z,65.80
2023-05-22T03:54:27.544Z,65.70
2023-05-22T03:56:54.265Z,65.70
2023-05-22T03:59:21.678Z,65.60
2023-05-22T04:01:48.831Z,65.50
2023-05-22T04:04:16.582Z,65.50
2023-05-22T04:06:43.638Z,65.40
2023-05-22T04:09:11.869Z,65.30
2023-05-22T04:11:42.463Z,65.30
2023-05-22T04:14:09.852Z,65.30
2023-05-22T04:16:36.710Z,65.10
2023-05-22T04:19:03.807Z,65.00
2023-05-22T04:21:34.066Z,65.10
2023-05-22T04:24:07.359Z,65.10
2023-05-22T04:26:34.312Z,65.10
2023-05-22T04:29:01.237Z,65.10
2023-05-22T04:31:28.429Z,65.00
2023-05-22T04:33:55.917Z,65.00
2023-05-22T04:36:25.913Z,65.20
2023-05-22T04:38:54.050Z,65.30
2023-05-22T04:41:22.626Z,65.40
2023-05-22T04:43:49.827Z,65.40
2023-05-22T04:46:16.603Z,65.60
2023-05-22T04:48:43.371Z,65.70
2023-05-22T04:51:10.357Z,65.70
2023-05-22T04:53:38.600Z,65.80
2023-05-22T04:56:06.346Z,65.90
2023-05-22T04:58:33.310Z,65.90
2023-05-22T05:01:00.187Z,66.10
2023-05-22T05:03:28.363Z,66.10
2023-05-22T05:05:55.226Z,66.20
2023-05-22T05:08:21.964Z,66.20
2023-05-22T05:10:48.870Z,66.40
2023-05-22T05:13:15.737Z,66.40
2023-05-22T05:15:42.411Z,66.50
2023-05-22T05:18:09.170Z,66.50
2023-05-22T05:20:37.071Z,66.60
2023-05-22T05:23:03.904Z,66.60
2023-05-22T05:25:30.802Z,66.50
2023-05-22T05:27:57.700Z,66.60
2023-05-22T05:30:24.428Z,66.70
2023-05-22T05:32:51.204Z,66.70
2023-05-22T05:35:17.960Z,66.80
2023-05-22T05:37:44.675Z,67.10
2023-05-22T05:40:12.036Z,67.10
2023-05-22T05:42:38.767Z,67.30
2023-05-22T05:45:05.804Z,67.30
2023-05-22T05:47:32.922Z,67.30
2023-05-22T05:50:00.788Z,67.30
2023-05-22T05:52:32.402Z,67.00
2023-05-22T05:55:02.346Z,67.00
2023-05-22T05:57:31.216Z,67.10
2023-05-22T05:59:58.921Z,67.10
2023-05-22T06:02:25.835Z,66.90
2023-05-22T06:04:53.756Z,66.90
2023-05-22T06:07:21.005Z,66.80
2023-05-22T06:09:47.750Z,66.90
2023-05-22T06:12:14.556Z,66.90
2023-05-22T06:14:42.243Z,67.10
2023-05-22T06:17:11.682Z,67.40
2023-05-22T06:19:38.625Z,67.20
2023-05-22T06:22:05.545Z,67.30
2023-05-22T06:24:32.611Z,67.60
2023-05-22T06:27:00.173Z,67.70
2023-05-22T06:29:27.011Z,67.60
2023-05-22T06:31:53.762Z,67.40
2023-05-22T06:34:22.421Z,67.20
2023-05-22T06:36:52.106Z,67.30
2023-05-22T06:39:24.778Z,67.20
2023-05-22T06:41:51.449Z,67.50
2023-05-22T06:44:18.160Z,67.50
2023-05-22T06:46:45.066Z,67.90
2023-05-22T06:49:11.807Z,67.70
2023-05-22T06:51:38.549Z,67.90
2023-05-22T06:54:07.182Z,67.70
2023-05-22T06:56:34.001Z,67.60
2023-05-22T06:59:01.115Z,67.90
2023-05-22T07:01:29.360Z,67.50
2023-05-22T07:04:05.107Z,67.70
2023-05-22T07:06:33.632Z,68.30
2023-05-22T07:09:00.629Z,68.70
2023-05-22T07:11:27.450Z,67.10
2023-05-22T07:13:54.216Z,68.80
2023-05-22T07:16:21.005Z,69.10
2023-05-22T07:18:47.762Z,68.80
2023-05-22T07:21:14.501Z,68.90
2023-05-22T07:23:41.237Z,69.20
2023-05-22T07:26:08.260Z,69.40
2023-05-22T07:28:36.110Z,69.60
2023-05-22T07:31:02.891Z,69.90
2023-05-22T07:33:29.651Z,69.50
2023-05-22T07:35:57.430Z,69.40
2023-05-22T07:38:24.229Z,69.00
2023-05-22T07:40:51.006Z,68.90
2023-05-22T07:43:17.804Z,69.30
2023-05-22T07:45:44.802Z,69.10
2023-05-22T07:48:11.970Z,68.90
2023-05-22T07:50:38.829Z,68.50
2023-05-22T07:53:06.603Z,68.60
2023-05-22T07:55:33.330Z,68.70
2023-05-22T07:58:00.189Z,69.10
2023-05-22T08:00:27.264Z,68.30
2023-05-22T08:02:54.030Z,67.40
2023-05-22T08:05:22.046Z,67.90
2023-05-22T08:12:44.570Z,68.10
2023-05-22T08:15:11.615Z,68.00
2023-05-22T09:30:08.673Z,68.00
2023-05-22T09:32:36.132Z,68.30
2023-05-22T09:35:04.794Z,68.80
2023-05-22T09:37:35.514Z,69.30
2023-05-22T09:40:11.145Z,69.90
2023-05-22T09:42:38.046Z,69.90
2023-05-22T09:45:06.497Z,67.90
2023-05-22T09:47:34.461Z,67.40
2023-05-22T12:01:03.802Z,66.40
2023-05-22T12:13:29.970Z,59.70
2023-05-22T12:16:00.959Z,60.00
2023-05-22T12:20:56.013Z,60.80
2023-05-22T12:23:26.669Z,59.90
2023-05-22T12:26:00.992Z,61.30
2023-05-22T12:28:34.072Z,61.30
2023-05-22T12:31:00.889Z,62.20
2023-05-22T12:33:31.452Z,62.20
2023-05-22T13:35:12.170Z,62.90
2023-05-22T13:37:39.336Z,52.80
2023-05-22T13:40:08.075Z,52.90
2023-05-22T13:42:36.654Z,52.30
2023-05-22T13:45:04.605Z,52.30
2023-05-22T13:47:31.635Z,52.00
2023-05-22T13:49:58.365Z,52.10
2023-05-22T13:52:25.285Z,52.70
2023-05-22T13:54:52.390Z,53.40
2023-05-22T13:57:19.106Z,54.70
2023-05-22T13:59:46.029Z,55.30
2023-05-22T14:02:14.173Z,55.30
2023-05-22T14:04:43.197Z,55.40
2023-05-22T14:07:10.077Z,55.20
2023-05-22T14:09:36.813Z,55.70
2023-05-22T14:12:03.788Z,55.60
2023-05-22T14:14:30.500Z,55.00
2023-05-22T14:16:57.250Z,55.10
2023-05-22T14:19:24.614Z,55.50
2023-05-22T14:21:51.796Z,55.90
2023-05-22T14:24:18.648Z,55.90
2023-05-22T14:26:45.378Z,56.10
2023-05-22T14:29:12.520Z,55.70
2023-05-22T14:31:51.994Z,55.90
2023-05-22T14:34:18.912Z,56.10
2023-05-22T14:36:46.432Z,56.20
2023-05-22T14:39:13.114Z,55.80
2023-05-22T14:41:39.776Z,55.80
2023-05-22T14:44:06.646Z,56.40
2023-05-22T14:46:35.534Z,56.00
2023-05-22T14:49:02.381Z,56.20
2023-05-22T14:51:29.218Z,55.90
2023-05-22T14:53:57.301Z,55.60
2023-05-22T14:56:25.394Z,55.60
2023-05-22T14:58:52.203Z,55.20
2023-05-22T15:01:21.027Z,55.10
2023-05-22T15:03:47.876Z,54.90
2023-05-22T15:06:15.078Z,54.00
2023-05-22T15:08:41.823Z,53.80
2023-05-22T15:11:08.507Z,53.80
2023-05-22T15:13:35.248Z,54.00
2023-05-22T15:16:01.932Z,54.70
2023-05-22T15:18:28.676Z,53.90
2023-05-22T15:20:55.600Z,54.00
2023-05-22T15:23:25.237Z,53.80
2023-05-22T15:25:55.121Z,53.20
2023-05-22T15:28:21.932Z,53.10
2023-05-22T15:30:48.923Z,52.80
2023-05-22T15:33:16.066Z,53.00
2023-05-22T15:35:46.567Z,53.40
2023-05-22T15:38:13.868Z,53.30
2023-05-22T15:40:41.396Z,53.20
2023-05-22T15:43:08.164Z,53.40
2023-05-22T15:45:36.801Z,53.20
2023-05-22T15:48:05.417Z,52.90
2023-05-22T15:50:33.750Z,53.10
2023-05-22T15:53:00.919Z,52.60
2023-05-22T15:55:28.183Z,53.70
2023-05-22T15:57:55.068Z,52.20
2023-05-22T16:00:21.902Z,51.80
2023-05-22T16:02:49.317Z,52.50
2023-05-22T16:05:17.798Z,52.00
2023-05-22T16:07:44.532Z,51.70
2023-05-22T16:10:11.548Z,52.60
2023-05-22T16:12:41.665Z,52.20
2023-05-22T16:15:10.953Z,51.90
2023-05-22T16:17:39.440Z,51.90
2023-05-22T16:20:07.285Z,52.10
2023-05-22T16:22:47.372Z,52.00
2023-05-22T16:25:16.931Z,52.00
2023-05-22T16:27:44.185Z,52.20
2023-05-22T16:30:12.506Z,52.20
2023-05-22T16:32:39.325Z,52.50
2023-05-22T16:35:06.463Z,52.90
2023-05-22T16:37:33.909Z,52.90
2023-05-22T16:40:00.953Z,52.80
2023-05-22T16:42:27.762Z,52.90
2023-05-22T16:44:54.506Z,53.10
2023-05-22T16:47:22.071Z,53.10
2023-05-22T16:49:49.406Z,53.40
2023-05-22T16:52:18.074Z,53.20
2023-05-22T16:54:44.871Z,53.30
2023-05-22T16:57:11.571Z,53.30
2023-05-22T16:59:38.342Z,53.40
2023-05-22T17:02:05.452Z,53.50
2023-05-22T17:04:32.193Z,53.60
2023-05-22T17:06:58.905Z,53.80
2023-05-22T17:09:27.441Z,54.00
2023-05-22T17:11:54.596Z,54.20
2023-05-22T17:14:22.127Z,54.30
2023-05-22T17:16:49.251Z,54.60
2023-05-22T17:19:17.698Z,55.00
2023-05-22T17:21:44.657Z,55.00
2023-05-22T17:24:14.645Z,55.10
2023-05-22T17:26:42.052Z,55.30
2023-05-22T17:29:10.826Z,55.40
2023-05-22T17:31:39.441Z,55.60
2023-05-22T17:34:06.860Z,55.60
2023-05-22T17:36:35.036Z,55.60
2023-05-22T17:39:01.847Z,55.70
2023-05-22T17:41:28.624Z,55.80
2023-05-22T17:43:57.112Z,55.50
2023-05-22T17:46:23.939Z,55.40
2023-05-22T17:48:51.179Z,55.60
2023-05-22T17:51:18.027Z,55.50
2023-05-22T17:53:44.775Z,55.20
2023-05-22T17:56:12.669Z,55.30
2023-05-22T17:58:39.542Z,55.00
2023-05-22T18:01:06.415Z,55.00
2023-05-22T18:03:33.942Z,54.90
2023-05-22T18:06:00.912Z,55.10
2023-05-22T18:08:28.210Z,54.90
2023-05-22T18:10:55.806Z,54.80
2023-05-22T18:13:22.663Z,54.80
2023-05-22T18:15:51.295Z,54.90
2023-05-22T18:18:18.027Z,55.10
2023-05-22T18:20:46.139Z,55.10
2023-05-22T18:23:13.004Z,55.40
2023-05-22T18:25:39.766Z,55.40
2023-05-22T18:28:06.569Z,55.40
2023-05-22T18:30:33.409Z,55.20
2023-05-22T18:33:00.818Z,55.30
2023-05-22T18:35:28.749Z,55.40
2023-05-22T18:37:55.525Z,55.40
2023-05-22T18:40:22.259Z,55.50
2023-05-22T18:42:49.017Z,55.60
2023-05-22T18:45:16.234Z,55.70
2023-05-22T18:47:43.139Z,55.70
2023-05-22T18:50:10.534Z,55.70
2023-05-22T18:52:37.909Z,55.60
2023-05-22T18:55:05.746Z,55.40
2023-05-22T18:57:33.573Z,55.30
2023-05-22T19:00:00.288Z,55.30
2023-05-22T19:02:27.032Z,55.10
2023-05-22T19:04:53.854Z,55.00
2023-05-22T19:07:21.232Z,55.00
2023-05-22T19:09:49.595Z,55.30
2023-05-22T19:12:16.311Z,55.30
2023-05-22T19:14:43.103Z,55.40
2023-05-22T19:17:10.309Z,55.40
2023-05-22T19:19:37.315Z,55.40
2023-05-22T19:22:05.219Z,55.70
2023-05-22T19:24:31.998Z,55.70
2023-05-22T19:26:58.735Z,55.70
2023-05-22T19:29:25.517Z,55.80
2023-05-22T19:31:52.227Z,55.70
2023-05-22T19:34:19.007Z,56.00
2023-05-22T19:36:46.114Z,56.00
2023-05-22T19:39:12.939Z,56.00
2023-05-22T19:41:39.743Z,55.70
2023-05-22T19:44:06.578Z,55.70
2023-05-22T19:46:33.355Z,55.80
2023-05-22T19:49:00.152Z,55.80
2023-05-22T19:51:27.859Z,55.90
2023-05-22T19:53:54.685Z,56.00
2023-05-22T19:56:21.401Z,56.10
2023-05-22T19:58:48.274Z,56.20
2023-05-22T20:01:15.132Z,56.40
2023-05-22T20:03:49.195Z,56.40
2023-05-22T20:06:16.146Z,56.50
2023-05-22T20:08:44.149Z,56.40
2023-05-22T20:11:11.009Z,56.60
2023-05-22T20:13:37.737Z,56.70
2023-05-22T20:16:11.464Z,56.70
2023-05-22T20:18:41.346Z,56.80
2023-05-22T20:21:09.724Z,56.90
2023-05-22T20:23:36.436Z,56.90
2023-05-22T20:26:03.450Z,56.70
2023-05-22T20:28:30.762Z,56.70
2023-05-22T20:30:57.781Z,56.70
2023-05-22T20:33:24.525Z,56.80
2023-05-22T20:35:54.602Z,56.90
2023-05-22T20:38:22.377Z,57.00
2023-05-22T20:40:55.750Z,57.20
2023-05-22T20:43:22.429Z,57.00
2023-05-22T20:45:49.210Z,56.80
2023-05-22T20:48:16.548Z,55.90
2023-05-22T20:50:43.458Z,55.40
2023-05-22T20:53:10.247Z,55.10
2023-05-22T20:55:37.120Z,54.80
2023-05-22T20:58:03.905Z,54.80
2023-05-22T21:00:30.607Z,54.80
2023-05-22T21:02:58.493Z,54.50
2023-05-22T21:05:26.210Z,54.50
2023-05-22T21:07:53.012Z,54.60
2023-05-22T21:10:19.793Z,54.50
2023-05-22T21:12:46.560Z,54.40
2023-05-22T21:15:13.321Z,54.40
2023-05-22T21:17:40.195Z,54.40
2023-05-22T21:20:08.078Z,54.30
2023-05-22T21:22:34.849Z,54.30
2023-05-22T21:25:01.566Z,54.50
2023-05-22T21:27:28.311Z,54.60
2023-05-22T21:29:55.000Z,54.50
2023-05-22T21:32:21.866Z,54.60
2023-05-22T21:34:48.619Z,54.70
2023-05-22T21:37:15.375Z,54.80
2023-05-22T21:39:42.076Z,54.70
2023-05-22T21:42:08.900Z,54.80
2023-05-22T21:44:35.925Z,54.90
2023-05-22T21:47:02.837Z,54.90
2023-05-22T21:49:29.558Z,54.80
2023-05-22T21:51:56.321Z,54.90
2023-05-22T22:06:39.212Z,55.10
2023-05-22T22:09:05.947Z,55.10
2023-05-22T22:11:33.092Z,55.20
2023-05-22T22:13:59.827Z,55.30
2023-05-22T22:16:27.822Z,55.40
2023-05-22T22:18:54.861Z,55.40
2023-05-22T22:21:22.780Z,55.40
2023-05-22T22:23:49.523Z,55.30
2023-05-22T22:26:16.408Z,55.40
2023-05-22T22:28:43.221Z,55.40
2023-05-22T22:31:10.070Z,55.40
2023-05-22T22:33:37.195Z,55.40
2023-05-22T22:36:04.376Z,55.40
2023-05-22T22:38:32.903Z,55.00
2023-05-22T22:41:01.278Z,55.10
2023-05-22T22:43:28.052Z,55.00
2023-05-22T22:45:55.926Z,55.20
2023-05-22T22:48:22.909Z,55.00
2023-05-22T22:50:50.092Z,54.80
2023-05-22T22:53:16.983Z,54.80
2023-05-22T22:55:44.399Z,54.90
2023-05-22T22:58:11.289Z,55.00
2023-05-22T23:00:38.386Z,54.80
2023-05-22T23:03:05.182Z,54.90
2023-05-22T23:05:32.096Z,54.90
2023-05-22T23:08:01.899Z,55.00
2023-05-22T23:12:57.650Z,54.50
2023-05-22T23:15:24.441Z,55.00
2023-05-22T23:32:35.872Z,55.40
2023-05-22T23:35:02.641Z,55.10
2023-05-22T23:37:29.334Z,55.20
2023-05-22T23:39:56.035Z,55.30
2023-05-22T23:42:22.971Z,55.20
2023-05-22T23:44:49.748Z,55.30
2023-05-22T23:47:18.001Z,55.30
